Decoded Metar for CYZE (GORE BAY in ON, CANADA) (IATA:YZE) | Meteo·Mobile Aviation Weather
aviador You're here:

CYZE Decoded Metar

GORE BAY in ON, CANADA
Report Time2018-10-23 01:00:00
UTC Time2018-10-23 01:24:46
Flight Rules vfr VFR
Wind110° at 06 kt
W.Decomp.*RWY 11: 5.9 kt HW 0.9 kt RCW
RWY 05: 2.2 kt HW 5.6 kt RCW
W.Rank110° ranks 31
Current wind is below 110° avg. (6.6)
Visibility9999 m
Phenomena:N/A
Clouds:Overcast 120 Hf
Ceiling12,000 ft
Temp04°C (ISA -10)
Dew Point04°C (100% RH)
AAT0.5°C
QNH1014 hPa
Density Alt-466 ft
Elevation633 ft
Report Wrong Elevation
Raw Report
CYZE 230100Z AUTO 11006KT 9SM OVC120 04/04 A2993 RMK SLP144=

Extra information for CYZE:More info

Metar Taf Metar & Taf Last 4 Metars F.Rules Stats Wind Profile Meteogram Temp Stats Airport Information Weather charts Add Link Nearby VenuesMetar ALERT Operation Metar Decoded Social comments